sensor_id;sensor_type;location;lat;lon;timestamp;temperature;humidity
30244;DHT22;64022;53.652;9.792;2023-06-26T00:02:15;28.40;51.20
30244;DHT22;64022;53.652;9.792;2023-06-26T00:04:42;28.40;51.30
30244;DHT22;64022;53.652;9.792;2023-06-26T00:07:07;28.40;51.30
30244;DHT22;64022;53.652;9.792;2023-06-26T00:09:33;28.40;51.30
30244;DHT22;64022;53.652;9.792;2023-06-26T00:11:58;28.40;51.40
30244;DHT22;64022;53.652;9.792;2023-06-26T00:14:24;28.40;51.40
30244;DHT22;64022;53.652;9.792;2023-06-26T00:16:51;28.40;51.40
30244;DHT22;64022;53.652;9.792;2023-06-26T00:19:18;28.40;52.00
30244;DHT22;64022;53.652;9.792;2023-06-26T00:21:43;28.30;51.40
30244;DHT22;64022;53.652;9.792;2023-06-26T00:24:13;28.40;51.50
30244;DHT22;64022;53.652;9.792;2023-06-26T00:26:38;28.40;51.60
30244;DHT22;64022;53.652;9.792;2023-06-26T00:29:04;28.30;51.50
30244;DHT22;64022;53.652;9.792;2023-06-26T00:31:30;28.30;51.50
30244;DHT22;64022;53.652;9.792;2023-06-26T00:33:55;28.30;51.60
30244;DHT22;64022;53.652;9.792;2023-06-26T00:36:20;28.30;51.60
30244;DHT22;64022;53.652;9.792;2023-06-26T00:38:48;28.30;51.60
30244;DHT22;64022;53.652;9.792;2023-06-26T00:41:13;28.30;51.70
30244;DHT22;64022;53.652;9.792;2023-06-26T00:43:39;28.30;51.70
30244;DHT22;64022;53.652;9.792;2023-06-26T00:46:05;28.30;51.70
30244;DHT22;64022;53.652;9.792;2023-06-26T00:48:33;28.30;51.70
30244;DHT22;64022;53.652;9.792;2023-06-26T00:50:59;28.30;51.80
30244;DHT22;64022;53.652;9.792;2023-06-26T00:53:24;28.30;51.80
30244;DHT22;64022;53.652;9.792;2023-06-26T00:55:49;28.30;51.80
30244;DHT22;64022;53.652;9.792;2023-06-26T00:58:15;28.30;51.80
30244;DHT22;64022;53.652;9.792;2023-06-26T01:00:40;28.20;51.80
30244;DHT22;64022;53.652;9.792;2023-06-26T01:03:06;28.20;51.90
30244;DHT22;64022;53.652;9.792;2023-06-26T01:05:32;28.20;51.80
30244;DHT22;64022;53.652;9.792;2023-06-26T01:07:57;28.20;51.90
30244;DHT22;64022;53.652;9.792;2023-06-26T01:10:23;28.20;51.90
30244;DHT22;64022;53.652;9.792;2023-06-26T01:12:49;28.20;51.90
30244;DHT22;64022;53.652;9.792;2023-06-26T01:15:15;28.20;51.90
30244;DHT22;64022;53.652;9.792;2023-06-26T01:17:40;28.20;52.00
30244;DHT22;64022;53.652;9.792;2023-06-26T01:20:10;28.20;52.00
30244;DHT22;64022;53.652;9.792;2023-06-26T01:27:35;28.20;52.00
30244;DHT22;64022;53.652;9.792;2023-06-26T01:30:02;28.20;52.10
30244;DHT22;64022;53.652;9.792;2023-06-26T01:32:28;28.10;52.00
30244;DHT22;64022;53.652;9.792;2023-06-26T01:34:54;28.10;52.00
30244;DHT22;64022;53.652;9.792;2023-06-26T01:37:19;28.10;52.00
30244;DHT22;64022;53.652;9.792;2023-06-26T01:39:45;28.10;52.10
30244;DHT22;64022;53.652;9.792;2023-06-26T01:42:10;28.10;52.10
30244;DHT22;64022;53.652;9.792;2023-06-26T01:44:37;28.10;52.10
30244;DHT22;64022;53.652;9.792;2023-06-26T01:47:04;28.10;52.10
30244;DHT22;64022;53.652;9.792;2023-06-26T01:52:21;28.10;52.20
30244;DHT22;64022;53.652;9.792;2023-06-26T01:57:29;28.10;52.20
30244;DHT22;64022;53.652;9.792;2023-06-26T01:59:55;28.00;52.20
30244;DHT22;64022;53.652;9.792;2023-06-26T02:02:23;28.00;52.20
30244;DHT22;64022;53.652;9.792;2023-06-26T02:04:48;28.10;52.30
30244;DHT22;64022;53.652;9.792;2023-06-26T02:07:14;28.00;52.20
30244;DHT22;64022;53.652;9.792;2023-06-26T02:09:39;28.10;52.30
30244;DHT22;64022;53.652;9.792;2023-06-26T02:12:04;28.00;52.20
30244;DHT22;64022;53.652;9.792;2023-06-26T02:14:30;28.00;52.30
30244;DHT22;64022;53.652;9.792;2023-06-26T02:16:55;28.00;52.30
30244;DHT22;64022;53.652;9.792;2023-06-26T02:19:21;28.00;52.30
30244;DHT22;64022;53.652;9.792;2023-06-26T02:21:48;28.00;52.30
30244;DHT22;64022;53.652;9.792;2023-06-26T02:24:13;28.00;52.30
30244;DHT22;64022;53.652;9.792;2023-06-26T02:26:39;28.00;52.30
30244;DHT22;64022;53.652;9.792;2023-06-26T02:29:04;28.00;52.30
30244;DHT22;64022;53.652;9.792;2023-06-26T02:31:30;28.00;52.40
30244;DHT22;64022;53.652;9.792;2023-06-26T02:33:55;28.00;52.40
30244;DHT22;64022;53.652;9.792;2023-06-26T02:36:21;27.90;51.90
30244;DHT22;64022;53.652;9.792;2023-06-26T02:38:46;27.80;51.20
30244;DHT22;64022;53.652;9.792;2023-06-26T02:41:12;27.70;50.90
30244;DHT22;64022;53.652;9.792;2023-06-26T02:43:37;27.60;50.90
30244;DHT22;64022;53.652;9.792;2023-06-26T02:46:02;27.50;50.80
30244;DHT22;64022;53.652;9.792;2023-06-26T02:48:28;27.50;50.80
30244;DHT22;64022;53.652;9.792;2023-06-26T02:50:53;27.40;50.90
30244;DHT22;64022;53.652;9.792;2023-06-26T02:53:19;27.30;50.80
30244;DHT22;64022;53.652;9.792;2023-06-26T02:55:44;27.20;50.90
30244;DHT22;64022;53.652;9.792;2023-06-26T02:58:10;27.10;50.90
30244;DHT22;64022;53.652;9.792;2023-06-26T03:00:35;27.10;50.90
30244;DHT22;64022;53.652;9.792;2023-06-26T03:03:06;27.00;50.80
30244;DHT22;64022;53.652;9.792;2023-06-26T03:05:32;27.00;50.90
30244;DHT22;64022;53.652;9.792;2023-06-26T03:07:57;26.90;50.90
30244;DHT22;64022;53.652;9.792;2023-06-26T03:10:23;26.80;50.90
30244;DHT22;64022;53.652;9.792;2023-06-26T03:12:48;26.80;51.00
30244;DHT22;64022;53.652;9.792;2023-06-26T03:15:13;26.70;51.00
30244;DHT22;64022;53.652;9.792;2023-06-26T03:17:39;26.70;51.10
30244;DHT22;64022;53.652;9.792;2023-06-26T03:20:05;26.60;51.10
30244;DHT22;64022;53.652;9.792;2023-06-26T03:22:32;26.60;51.20
30244;DHT22;64022;53.652;9.792;2023-06-26T03:24:58;26.60;51.30
30244;DHT22;64022;53.652;9.792;2023-06-26T03:27:23;26.60;51.30
30244;DHT22;64022;53.652;9.792;2023-06-26T03:29:49;26.60;51.50
30244;DHT22;64022;53.652;9.792;2023-06-26T03:32:14;26.50;51.40
30244;DHT22;64022;53.652;9.792;2023-06-26T03:34:39;26.60;51.60
30244;DHT22;64022;53.652;9.792;2023-06-26T03:37:05;26.50;51.60
30244;DHT22;64022;53.652;9.792;2023-06-26T03:39:30;26.50;51.60
30244;DHT22;64022;53.652;9.792;2023-06-26T03:41:56;26.50;51.60
30244;DHT22;64022;53.652;9.792;2023-06-26T03:44:25;26.40;51.60
30244;DHT22;64022;53.652;9.792;2023-06-26T03:46:51;26.40;51.60
30244;DHT22;64022;53.652;9.792;2023-06-26T03:49:16;26.40;51.70
30244;DHT22;64022;53.652;9.792;2023-06-26T03:51:42;26.30;51.70
30244;DHT22;64022;53.652;9.792;2023-06-26T03:54:08;26.30;51.80
30244;DHT22;64022;53.652;9.792;2023-06-26T03:56:33;26.30;52.00
30244;DHT22;64022;53.652;9.792;2023-06-26T03:58:59;26.30;52.10
30244;DHT22;64022;53.652;9.792;2023-06-26T04:01:24;26.30;52.20
30244;DHT22;64022;53.652;9.792;2023-06-26T04:03:49;26.30;52.20
30244;DHT22;64022;53.652;9.792;2023-06-26T04:06:15;26.30;52.30
30244;DHT22;64022;53.652;9.792;2023-06-26T04:08:40;26.30;52.50
30244;DHT22;64022;53.652;9.792;2023-06-26T04:11:06;26.30;52.50
30244;DHT22;64022;53.652;9.792;2023-06-26T04:13:31;26.30;52.60
30244;DHT22;64022;53.652;9.792;2023-06-26T04:15:57;26.30;52.60
30244;DHT22;64022;53.652;9.792;2023-06-26T04:18:22;26.30;53.20
30244;DHT22;64022;53.652;9.792;2023-06-26T04:21:03;26.40;52.70
30244;DHT22;64022;53.652;9.792;2023-06-26T04:23:29;26.40;52.80
30244;DHT22;64022;53.652;9.792;2023-06-26T04:25:54;26.40;52.90
30244;DHT22;64022;53.652;9.792;2023-06-26T04:28:20;26.40;53.00
30244;DHT22;64022;53.652;9.792;2023-06-26T04:30:45;26.50;53.00
30244;DHT22;64022;53.652;9.792;2023-06-26T04:33:10;26.40;53.00
30244;DHT22;64022;53.652;9.792;2023-06-26T04:35:37;26.50;53.10
30244;DHT22;64022;53.652;9.792;2023-06-26T04:38:02;26.50;53.10
30244;DHT22;64022;53.652;9.792;2023-06-26T04:40:28;26.50;53.20
30244;DHT22;64022;53.652;9.792;2023-06-26T04:42:53;26.50;53.20
30244;DHT22;64022;53.652;9.792;2023-06-26T04:45:19;26.60;53.40
30244;DHT22;64022;53.652;9.792;2023-06-26T04:47:44;26.60;53.40
30244;DHT22;64022;53.652;9.792;2023-06-26T04:50:09;26.60;53.40
30244;DHT22;64022;53.652;9.792;2023-06-26T04:52:35;26.70;53.50
30244;DHT22;64022;53.652;9.792;2023-06-26T04:55:00;26.70;53.60
30244;DHT22;64022;53.652;9.792;2023-06-26T04:57:26;26.70;53.70
30244;DHT22;64022;53.652;9.792;2023-06-26T04:59:51;26.80;53.80
30244;DHT22;64022;53.652;9.792;2023-06-26T05:02:17;26.80;53.80
30244;DHT22;64022;53.652;9.792;2023-06-26T05:04:42;26.90;54.00
30244;DHT22;64022;53.652;9.792;2023-06-26T05:07:08;26.90;54.00
30244;DHT22;64022;53.652;9.792;2023-06-26T05:09:33;27.00;54.20
30244;DHT22;64022;53.652;9.792;2023-06-26T05:11:58;27.10;54.20
30244;DHT22;64022;53.652;9.792;2023-06-26T05:14:24;27.20;54.40
30244;DHT22;64022;53.652;9.792;2023-06-26T05:16:49;27.30;54.40
30244;DHT22;64022;53.652;9.792;2023-06-26T05:19:15;27.30;54.30
30244;DHT22;64022;53.652;9.792;2023-06-26T05:21:40;27.50;54.40
30244;DHT22;64022;53.652;9.792;2023-06-26T05:24:06;27.50;54.40
30244;DHT22;64022;53.652;9.792;2023-06-26T05:26:33;27.60;54.50
30244;DHT22;64022;53.652;9.792;2023-06-26T05:28:59;27.70;54.50
30244;DHT22;64022;53.652;9.792;2023-06-26T05:31:24;27.80;54.50
30244;DHT22;64022;53.652;9.792;2023-06-26T05:33:50;27.90;54.60
30244;DHT22;64022;53.652;9.792;2023-06-26T05:36:17;28.00;55.10
30244;DHT22;64022;53.652;9.792;2023-06-26T05:38:43;28.00;54.50
30244;DHT22;64022;53.652;9.792;2023-06-26T05:41:09;28.20;54.50
30244;DHT22;64022;53.652;9.792;2023-06-26T05:43:34;28.20;54.50
30244;DHT22;64022;53.652;9.792;2023-06-26T05:46:00;28.30;54.50
30244;DHT22;64022;53.652;9.792;2023-06-26T05:48:25;28.40;54.40
30244;DHT22;64022;53.652;9.792;2023-06-26T05:50:51;28.50;54.40
30244;DHT22;64022;53.652;9.792;2023-06-26T05:53:16;28.50;54.30
30244;DHT22;64022;53.652;9.792;2023-06-26T05:55:42;28.60;54.30
30244;DHT22;64022;53.652;9.792;2023-06-26T05:58:09;28.70;54.20
30244;DHT22;64022;53.652;9.792;2023-06-26T06:00:35;28.80;54.20
30244;DHT22;64022;53.652;9.792;2023-06-26T06:03:00;28.80;54.10
30244;DHT22;64022;53.652;9.792;2023-06-26T06:05:26;29.00;54.10
30244;DHT22;64022;53.652;9.792;2023-06-26T06:07:51;29.00;54.10
30244;DHT22;64022;53.652;9.792;2023-06-26T06:10:17;29.10;54.00
30244;DHT22;64022;53.652;9.792;2023-06-26T06:12:42;29.20;53.90
30244;DHT22;64022;53.652;9.792;2023-06-26T06:15:08;29.30;53.90
30244;DHT22;64022;53.652;9.792;2023-06-26T06:17:33;29.40;53.80
30244;DHT22;64022;53.652;9.792;2023-06-26T06:19:59;29.50;53.50
30244;DHT22;64022;53.652;9.792;2023-06-26T06:22:24;29.40;53.00
30244;DHT22;64022;53.652;9.792;2023-06-26T06:24:50;29.30;52.70
30244;DHT22;64022;53.652;9.792;2023-06-26T06:27:15;29.10;52.40
30244;DHT22;64022;53.652;9.792;2023-06-26T06:29:41;29.10;52.30
30244;DHT22;64022;53.652;9.792;2023-06-26T06:32:07;28.90;52.10
30244;DHT22;64022;53.652;9.792;2023-06-26T06:34:32;28.90;52.10
30244;DHT22;64022;53.652;9.792;2023-06-26T06:36:58;28.80;52.10
30244;DHT22;64022;53.652;9.792;2023-06-26T06:39:23;28.80;52.10
30244;DHT22;64022;53.652;9.792;2023-06-26T06:41:48;28.80;52.10
30244;DHT22;64022;53.652;9.792;2023-06-26T06:44:14;28.70;52.00
30244;DHT22;64022;53.652;9.792;2023-06-26T06:46:39;28.70;52.00
30244;DHT22;64022;53.652;9.792;2023-06-26T06:49:05;28.70;52.00
30244;DHT22;64022;53.652;9.792;2023-06-26T06:51:30;28.60;51.90
30244;DHT22;64022;53.652;9.792;2023-06-26T06:53:56;28.60;51.90
30244;DHT22;64022;53.652;9.792;2023-06-26T06:56:21;28.60;51.90
30244;DHT22;64022;53.652;9.792;2023-06-26T06:58:47;28.60;51.90
30244;DHT22;64022;53.652;9.792;2023-06-26T07:01:12;28.60;51.90
30244;DHT22;64022;53.652;9.792;2023-06-26T07:03:38;28.60;51.90
30244;DHT22;64022;53.652;9.792;2023-06-26T07:06:04;28.60;51.90
30244;DHT22;64022;53.652;9.792;2023-06-26T07:08:29;28.60;51.90
30244;DHT22;64022;53.652;9.792;2023-06-26T07:10:55;28.60;51.90
30244;DHT22;64022;53.652;9.792;2023-06-26T07:13:22;28.50;51.90
30244;DHT22;64022;53.652;9.792;2023-06-26T07:15:47;28.50;51.80
30244;DHT22;64022;53.652;9.792;2023-06-26T07:18:13;28.50;51.90
30244;DHT22;64022;53.652;9.792;2023-06-26T07:20:38;28.50;51.90
30244;DHT22;64022;53.652;9.792;2023-06-26T07:23:04;28.50;51.90
30244;DHT22;64022;53.652;9.792;2023-06-26T07:25:29;28.50;51.90
30244;DHT22;64022;53.652;9.792;2023-06-26T07:27:55;28.50;51.90
30244;DHT22;64022;53.652;9.792;2023-06-26T07:30:20;28.50;51.90
30244;DHT22;64022;53.652;9.792;2023-06-26T07:32:45;28.50;51.90
30244;DHT22;64022;53.652;9.792;2023-06-26T07:35:11;28.50;51.90
30244;DHT22;64022;53.652;9.792;2023-06-26T07:37:36;28.50;51.90
30244;DHT22;64022;53.652;9.792;2023-06-26T07:40:02;28.50;51.90
30244;DHT22;64022;53.652;9.792;2023-06-26T07:42:28;28.50;51.90
30244;DHT22;64022;53.652;9.792;2023-06-26T07:44:53;28.50;51.90
30244;DHT22;64022;53.652;9.792;2023-06-26T07:47:18;28.50;51.90
30244;DHT22;64022;53.652;9.792;2023-06-26T07:49:44;28.50;51.90
30244;DHT22;64022;53.652;9.792;2023-06-26T07:52:09;28.50;51.90
30244;DHT22;64022;53.652;9.792;2023-06-26T07:54:36;28.50;51.90
30244;DHT22;64022;53.652;9.792;2023-06-26T07:57:03;28.50;51.90
30244;DHT22;64022;53.652;9.792;2023-06-26T07:59:30;28.50;52.00
30244;DHT22;64022;53.652;9.792;2023-06-26T08:01:55;28.50;52.00
30244;DHT22;64022;53.652;9.792;2023-06-26T08:04:23;28.50;51.90
30244;DHT22;64022;53.652;9.792;2023-06-26T08:06:49;28.50;52.00
30244;DHT22;64022;53.652;9.792;2023-06-26T08:09:15;28.50;52.00
30244;DHT22;64022;53.652;9.792;2023-06-26T08:11:41;28.50;52.00
30244;DHT22;64022;53.652;9.792;2023-06-26T08:14:06;28.50;52.00
30244;DHT22;64022;53.652;9.792;2023-06-26T08:16:32;28.50;52.00
30244;DHT22;64022;53.652;9.792;2023-06-26T08:18:57;28.50;52.00
30244;DHT22;64022;53.652;9.792;2023-06-26T08:21:23;28.60;52.10
30244;DHT22;64022;53.652;9.792;2023-06-26T08:23:48;28.60;52.10
30244;DHT22;64022;53.652;9.792;2023-06-26T08:26:14;28.60;52.10
30244;DHT22;64022;53.652;9.792;2023-06-26T08:28:39;28.60;52.10
30244;DHT22;64022;53.652;9.792;2023-06-26T08:31:05;28.50;52.00
30244;DHT22;64022;53.652;9.792;2023-06-26T08:33:30;28.60;52.10
30244;DHT22;64022;53.652;9.792;2023-06-26T08:35:55;28.50;52.10
30244;DHT22;64022;53.652;9.792;2023-06-26T08:38:21;28.60;52.20
30244;DHT22;64022;53.652;9.792;2023-06-26T08:40:46;28.60;52.10
30244;DHT22;64022;53.652;9.792;2023-06-26T08:43:12;28.60;52.20
30244;DHT22;64022;53.652;9.792;2023-06-26T08:45:38;28.60;52.20
30244;DHT22;64022;53.652;9.792;2023-06-26T08:48:03;28.60;52.20
30244;DHT22;64022;53.652;9.792;2023-06-26T08:50:31;28.60;52.20
30244;DHT22;64022;53.652;9.792;2023-06-26T08:55:31;28.60;52.20
30244;DHT22;64022;53.652;9.792;2023-06-26T08:57:58;28.60;52.20
30244;DHT22;64022;53.652;9.792;2023-06-26T09:00:24;28.60;52.20
30244;DHT22;64022;53.652;9.792;2023-06-26T09:02:50;28.60;52.20
30244;DHT22;64022;53.652;9.792;2023-06-26T09:05:15;28.60;52.20
30244;DHT22;64022;53.652;9.792;2023-06-26T09:07:41;28.70;52.30
30244;DHT22;64022;53.652;9.792;2023-06-26T09:10:06;28.60;52.30
30244;DHT22;64022;53.652;9.792;2023-06-26T09:12:32;28.60;52.20
30244;DHT22;64022;53.652;9.792;2023-06-26T09:14:58;28.60;52.30
30244;DHT22;64022;53.652;9.792;2023-06-26T09:17:24;28.60;52.20
30244;DHT22;64022;53.652;9.792;2023-06-26T09:19:51;28.60;52.30
30244;DHT22;64022;53.652;9.792;2023-06-26T09:22:16;28.60;52.30
30244;DHT22;64022;53.652;9.792;2023-06-26T09:24:43;28.70;52.30
30244;DHT22;64022;53.652;9.792;2023-06-26T09:27:09;28.60;52.30
30244;DHT22;64022;53.652;9.792;2023-06-26T09:29:34;28.70;52.40
30244;DHT22;64022;53.652;9.792;2023-06-26T09:32:00;28.70;52.40
30244;DHT22;64022;53.652;9.792;2023-06-26T09:34:32;28.70;52.40
30244;DHT22;64022;53.652;9.792;2023-06-26T09:36:58;28.60;52.30
30244;DHT22;64022;53.652;9.792;2023-06-26T09:39:23;28.70;52.40
30244;DHT22;64022;53.652;9.792;2023-06-26T09:41:49;28.60;52.30
30244;DHT22;64022;53.652;9.792;2023-06-26T09:44:15;28.60;52.30
30244;DHT22;64022;53.652;9.792;2023-06-26T09:46:40;28.60;52.30
30244;DHT22;64022;53.652;9.792;2023-06-26T09:49:10;28.70;52.40
30244;DHT22;64022;53.652;9.792;2023-06-26T09:51:39;28.70;52.40
30244;DHT22;64022;53.652;9.792;2023-06-26T09:54:05;28.70;52.40
30244;DHT22;64022;53.652;9.792;2023-06-26T09:56:31;28.60;52.30
30244;DHT22;64022;53.652;9.792;2023-06-26T09:58:57;28.70;52.40
30244;DHT22;64022;53.652;9.792;2023-06-26T10:01:23;28.70;52.40
30244;DHT22;64022;53.652;9.792;2023-06-26T10:03:49;28.60;52.30
30244;DHT22;64022;53.652;9.792;2023-06-26T10:06:14;28.70;52.90
30244;DHT22;64022;53.652;9.792;2023-06-26T10:08:40;28.70;52.40
30244;DHT22;64022;53.652;9.792;2023-06-26T10:11:07;28.70;52.40
30244;DHT22;64022;53.652;9.792;2023-06-26T10:13:38;28.60;52.30
30244;DHT22;64022;53.652;9.792;2023-06-26T10:16:03;28.70;52.40
30244;DHT22;64022;53.652;9.792;2023-06-26T10:18:31;28.70;52.40
30244;DHT22;64022;53.652;9.792;2023-06-26T10:20:57;28.60;52.30
30244;DHT22;64022;53.652;9.792;2023-06-26T10:23:24;28.70;52.40
30244;DHT22;64022;53.652;9.792;2023-06-26T10:25:51;28.70;52.40
30244;DHT22;64022;53.652;9.792;2023-06-26T10:28:17;28.70;52.40
30244;DHT22;64022;53.652;9.792;2023-06-26T10:30:43;28.70;52.40
30244;DHT22;64022;53.652;9.792;2023-06-26T10:33:10;28.70;52.40
30244;DHT22;64022;53.652;9.792;2023-06-26T10:35:42;28.70;52.40
30244;DHT22;64022;53.652;9.792;2023-06-26T10:38:07;28.70;52.40
30244;DHT22;64022;53.652;9.792;2023-06-26T10:40:42;28.70;52.40
30244;DHT22;64022;53.652;9.792;2023-06-26T10:43:08;28.70;52.40
30244;DHT22;64022;53.652;9.792;2023-06-26T10:45:34;28.70;52.40
30244;DHT22;64022;53.652;9.792;2023-06-26T10:48:03;28.70;52.40
30244;DHT22;64022;53.652;9.792;2023-06-26T10:50:32;28.70;52.40
30244;DHT22;64022;53.652;9.792;2023-06-26T10:53:07;28.70;52.40
30244;DHT22;64022;53.652;9.792;2023-06-26T10:55:33;28.70;52.40
30244;DHT22;64022;53.652;9.792;2023-06-26T10:57:58;28.70;52.40
30244;DHT22;64022;53.652;9.792;2023-06-26T11:00:24;28.70;52.40
30244;DHT22;64022;53.652;9.792;2023-06-26T11:02:49;28.70;52.40
30244;DHT22;64022;53.652;9.792;2023-06-26T11:05:29;28.70;52.50
30244;DHT22;64022;53.652;9.792;2023-06-26T11:08:09;28.70;52.50
30244;DHT22;64022;53.652;9.792;2023-06-26T11:10:47;28.70;52.50
30244;DHT22;64022;53.652;9.792;2023-06-26T11:13:13;28.70;52.50
30244;DHT22;64022;53.652;9.792;2023-06-26T11:15:38;28.70;52.50
30244;DHT22;64022;53.652;9.792;2023-06-26T11:18:05;28.70;52.50
30244;DHT22;64022;53.652;9.792;2023-06-26T11:20:31;28.80;52.60
30244;DHT22;64022;53.652;9.792;2023-06-26T11:22:57;28.80;52.50
30244;DHT22;64022;53.652;9.792;2023-06-26T11:25:23;28.80;52.60
30244;DHT22;64022;53.652;9.792;2023-06-26T11:27:49;28.80;52.60
30244;DHT22;64022;53.652;9.792;2023-06-26T11:30:24;28.70;52.50
30244;DHT22;64022;53.652;9.792;2023-06-26T11:32:50;28.70;52.50
30244;DHT22;64022;53.652;9.792;2023-06-26T11:35:22;28.80;52.60
30244;DHT22;64022;53.652;9.792;2023-06-26T11:37:48;28.70;52.50
30244;DHT22;64022;53.652;9.792;2023-06-26T11:40:17;28.80;52.60
30244;DHT22;64022;53.652;9.792;2023-06-26T11:42:44;28.70;52.50
30244;DHT22;64022;53.652;9.792;2023-06-26T11:45:09;28.80;52.60
30244;DHT22;64022;53.652;9.792;2023-06-26T11:47:35;28.80;52.60
30244;DHT22;64022;53.652;9.792;2023-06-26T11:50:04;28.80;52.60
30244;DHT22;64022;53.652;9.792;2023-06-26T11:52:29;28.80;52.60
30244;DHT22;64022;53.652;9.792;2023-06-26T11:54:57;28.80;52.60
30244;DHT22;64022;53.652;9.792;2023-06-26T11:57:23;28.80;52.60
30244;DHT22;64022;53.652;9.792;2023-06-26T11:59:49;28.80;52.60
30244;DHT22;64022;53.652;9.792;2023-06-26T12:02:15;28.80;52.60
30244;DHT22;64022;53.652;9.792;2023-06-26T12:04:42;28.80;52.60
30244;DHT22;64022;53.652;9.792;2023-06-26T12:07:08;28.80;52.60
30244;DHT22;64022;53.652;9.792;2023-06-26T12:09:45;28.80;52.60
30244;DHT22;64022;53.652;9.792;2023-06-26T12:12:11;28.80;52.60
30244;DHT22;64022;53.652;9.792;2023-06-26T12:14:37;28.80;52.60
30244;DHT22;64022;53.652;9.792;2023-06-26T12:17:12;28.80;52.60
30244;DHT22;64022;53.652;9.792;2023-06-26T12:19:39;28.80;52.60
30244;DHT22;64022;53.652;9.792;2023-06-26T12:22:08;28.80;52.60
30244;DHT22;64022;53.652;9.792;2023-06-26T12:24:35;28.80;52.60
30244;DHT22;64022;53.652;9.792;2023-06-26T12:27:01;28.80;52.60
30244;DHT22;64022;53.652;9.792;2023-06-26T12:29:31;28.80;52.60
30244;DHT22;64022;53.652;9.792;2023-06-26T12:31:59;28.80;52.60
30244;DHT22;64022;53.652;9.792;2023-06-26T12:34:30;28.80;52.60
30244;DHT22;64022;53.652;9.792;2023-06-26T12:36:59;28.80;52.60
30244;DHT22;64022;53.652;9.792;2023-06-26T12:39:25;28.80;52.60
30244;DHT22;64022;53.652;9.792;2023-06-26T12:42:01;28.80;52.60
30244;DHT22;64022;53.652;9.792;2023-06-26T12:44:28;28.80;52.60
30244;DHT22;64022;53.652;9.792;2023-06-26T12:46:58;28.80;52.60
30244;DHT22;64022;53.652;9.792;2023-06-26T12:49:40;28.80;52.60
30244;DHT22;64022;53.652;9.792;2023-06-26T12:52:07;28.80;52.60
30244;DHT22;64022;53.652;9.792;2023-06-26T12:54:33;28.80;52.60
30244;DHT22;64022;53.652;9.792;2023-06-26T12:56:59;28.80;52.60
30244;DHT22;64022;53.652;9.792;2023-06-26T12:59:24;28.80;52.60
30244;DHT22;64022;53.652;9.792;2023-06-26T13:01:50;28.80;52.60
30244;DHT22;64022;53.652;9.792;2023-06-26T13:04:15;28.80;52.60
30244;DHT22;64022;53.652;9.792;2023-06-26T13:06:41;28.80;52.60
30244;DHT22;64022;53.652;9.792;2023-06-26T13:09:06;28.80;52.60
30244;DHT22;64022;53.652;9.792;2023-06-26T13:11:32;28.80;52.60
30244;DHT22;64022;53.652;9.792;2023-06-26T13:13:58;28.80;52.60
30244;DHT22;64022;53.652;9.792;2023-06-26T13:16:24;28.80;52.60
30244;DHT22;64022;53.652;9.792;2023-06-26T13:18:49;28.80;52.60
30244;DHT22;64022;53.652;9.792;2023-06-26T13:21:15;28.80;52.60
30244;DHT22;64022;53.652;9.792;2023-06-26T13:23:41;28.80;52.60
30244;DHT22;64022;53.652;9.792;2023-06-26T13:26:07;28.80;52.60
30244;DHT22;64022;53.652;9.792;2023-06-26T13:28:32;28.80;52.60
30244;DHT22;64022;53.652;9.792;2023-06-26T13:30:58;28.80;52.60
30244;DHT22;64022;53.652;9.792;2023-06-26T13:33:23;28.80;52.60
30244;DHT22;64022;53.652;9.792;2023-06-26T13:35:52;28.80;52.60
30244;DHT22;64022;53.652;9.792;2023-06-26T13:38:21;28.80;52.60
30244;DHT22;64022;53.652;9.792;2023-06-26T13:40:55;28.80;52.60
30244;DHT22;64022;53.652;9.792;2023-06-26T13:43:22;28.80;52.60
30244;DHT22;64022;53.652;9.792;2023-06-26T13:45:51;28.90;52.60
30244;DHT22;64022;53.652;9.792;2023-06-26T13:48:16;28.80;52.60
30244;DHT22;64022;53.652;9.792;2023-06-26T13:50:42;28.90;52.70
30244;DHT22;64022;53.652;9.792;2023-06-26T13:53:07;28.80;52.60
30244;DHT22;64022;53.652;9.792;2023-06-26T13:55:34;28.80;52.60
30244;DHT22;64022;53.652;9.792;2023-06-26T13:57:59;28.80;52.60
30244;DHT22;64022;53.652;9.792;2023-06-26T14:00:25;28.90;52.70
30244;DHT22;64022;53.652;9.792;2023-06-26T14:02:50;28.80;52.30
30244;DHT22;64022;53.652;9.792;2023-06-26T14:05:17;28.80;51.80
30244;DHT22;64022;53.652;9.792;2023-06-26T14:07:44;28.70;51.30
30244;DHT22;64022;53.652;9.792;2023-06-26T14:10:09;28.60;50.80
30244;DHT22;64022;53.652;9.792;2023-06-26T14:12:35;28.60;50.60
30244;DHT22;64022;53.652;9.792;2023-06-26T14:15:00;28.50;50.20
30244;DHT22;64022;53.652;9.792;2023-06-26T14:17:26;28.40;49.70
30244;DHT22;64022;53.652;9.792;2023-06-26T14:19:52;28.40;49.50
30244;DHT22;64022;53.652;9.792;2023-06-26T14:22:17;28.30;49.20
30244;DHT22;64022;53.652;9.792;2023-06-26T14:24:43;28.30;48.90
30244;DHT22;64022;53.652;9.792;2023-06-26T14:27:09;28.20;48.70
30244;DHT22;64022;53.652;9.792;2023-06-26T14:29:35;28.20;48.50
30244;DHT22;64022;53.652;9.792;2023-06-26T14:32:00;28.20;48.30
30244;DHT22;64022;53.652;9.792;2023-06-26T14:34:26;28.20;48.00
30244;DHT22;64022;53.652;9.792;2023-06-26T14:36:51;28.10;47.70
30244;DHT22;64022;53.652;9.792;2023-06-26T14:39:17;28.10;47.40
30244;DHT22;64022;53.652;9.792;2023-06-26T14:41:42;28.10;47.20
30244;DHT22;64022;53.652;9.792;2023-06-26T14:44:08;28.00;46.90
30244;DHT22;64022;53.652;9.792;2023-06-26T14:46:35;28.00;46.70
30244;DHT22;64022;53.652;9.792;2023-06-26T14:49:00;27.90;46.50
30244;DHT22;64022;53.652;9.792;2023-06-26T14:51:26;27.90;46.40
30244;DHT22;64022;53.652;9.792;2023-06-26T14:53:51;27.80;46.20
30244;DHT22;64022;53.652;9.792;2023-06-26T14:56:17;27.80;46.00
30244;DHT22;64022;53.652;9.792;2023-06-26T14:58:42;27.80;45.80
30244;DHT22;64022;53.652;9.792;2023-06-26T15:01:07;27.70;45.50
30244;DHT22;64022;53.652;9.792;2023-06-26T15:03:34;27.70;45.30
30244;DHT22;64022;53.652;9.792;2023-06-26T15:05:59;27.60;45.20
30244;DHT22;64022;53.652;9.792;2023-06-26T15:08:25;27.60;45.10
30244;DHT22;64022;53.652;9.792;2023-06-26T15:10:50;27.60;45.10
30244;DHT22;64022;53.652;9.792;2023-06-26T15:13:15;27.60;45.30
30244;DHT22;64022;53.652;9.792;2023-06-26T15:15:41;27.50;45.10
30244;DHT22;64022;53.652;9.792;2023-06-26T15:18:07;27.50;45.00
30244;DHT22;64022;53.652;9.792;2023-06-26T15:20:32;27.50;44.80
30244;DHT22;64022;53.652;9.792;2023-06-26T15:22:58;27.50;44.50
30244;DHT22;64022;53.652;9.792;2023-06-26T15:25:23;27.50;44.40
30244;DHT22;64022;53.652;9.792;2023-06-26T15:27:49;27.40;44.10
30244;DHT22;64022;53.652;9.792;2023-06-26T15:30:15;27.40;43.80
30244;DHT22;64022;53.652;9.792;2023-06-26T15:32:41;27.30;43.70
30244;DHT22;64022;53.652;9.792;2023-06-26T15:35:06;27.30;43.60
30244;DHT22;64022;53.652;9.792;2023-06-26T15:37:32;27.30;43.40